sensor_id;sensor_type;location;lat;lon;timestamp;temperature;humidity
2721;DHT22;1368;49.484;11.112;2023-07-29T00:00:48;19.80;99.90
2721;DHT22;1368;49.484;11.112;2023-07-29T00:03:13;19.90;99.90
2721;DHT22;1368;49.484;11.112;2023-07-29T00:05:40;20.00;99.90
2721;DHT22;1368;49.484;11.112;2023-07-29T00:08:06;20.20;99.90
2721;DHT22;1368;49.484;11.112;2023-07-29T00:10:32;20.50;99.90
2721;DHT22;1368;49.484;11.112;2023-07-29T00:12:58;20.00;99.90
2721;DHT22;1368;49.484;11.112;2023-07-29T00:15:24;20.00;99.90
2721;DHT22;1368;49.484;11.112;2023-07-29T00:17:49;20.10;99.90
2721;DHT22;1368;49.484;11.112;2023-07-29T00:20:15;20.10;99.90
2721;DHT22;1368;49.484;11.112;2023-07-29T00:22:41;19.80;99.90
2721;DHT22;1368;49.484;11.112;2023-07-29T00:25:07;20.00;99.90
2721;DHT22;1368;49.484;11.112;2023-07-29T00:27:32;19.60;99.90
2721;DHT22;1368;49.484;11.112;2023-07-29T00:29:58;19.70;99.90
2721;DHT22;1368;49.484;11.112;2023-07-29T00:32:25;19.70;99.90
2721;DHT22;1368;49.484;11.112;2023-07-29T00:34:50;19.60;99.90
2721;DHT22;1368;49.484;11.112;2023-07-29T00:37:16;20.00;99.90
2721;DHT22;1368;49.484;11.112;2023-07-29T00:39:41;19.60;99.90
2721;DHT22;1368;49.484;11.112;2023-07-29T00:42:08;19.40;99.90
2721;DHT22;1368;49.484;11.112;2023-07-29T00:44:34;19.70;99.90
2721;DHT22;1368;49.484;11.112;2023-07-29T00:47:02;19.50;99.90
2721;DHT22;1368;49.484;11.112;2023-07-29T00:49:28;19.50;99.90
2721;DHT22;1368;49.484;11.112;2023-07-29T00:51:54;19.80;99.90
2721;DHT22;1368;49.484;11.112;2023-07-29T00:54:20;19.70;99.90
2721;DHT22;1368;49.484;11.112;2023-07-29T00:56:45;19.80;99.90
2721;DHT22;1368;49.484;11.112;2023-07-29T00:59:11;20.10;99.90
2721;DHT22;1368;49.484;11.112;2023-07-29T01:01:36;19.80;99.90
2721;DHT22;1368;49.484;11.112;2023-07-29T01:04:02;19.80;99.90
2721;DHT22;1368;49.484;11.112;2023-07-29T01:06:41;19.80;99.90
2721;DHT22;1368;49.484;11.112;2023-07-29T01:14:59;19.90;99.90
2721;DHT22;1368;49.484;11.112;2023-07-29T01:17:33;19.90;99.90
2721;DHT22;1368;49.484;11.112;2023-07-29T01:20:16;19.80;99.90
2721;DHT22;1368;49.484;11.112;2023-07-29T01:22:42;19.70;99.90
2721;DHT22;1368;49.484;11.112;2023-07-29T01:25:08;19.70;99.90
2721;DHT22;1368;49.484;11.112;2023-07-29T01:27:34;19.60;99.90
2721;DHT22;1368;49.484;11.112;2023-07-29T01:30:00;19.50;99.90
2721;DHT22;1368;49.484;11.112;2023-07-29T01:33:00;19.50;99.90
2721;DHT22;1368;49.484;11.112;2023-07-29T01:35:39;19.50;99.90
2721;DHT22;1368;49.484;11.112;2023-07-29T01:38:18;19.30;99.90
2721;DHT22;1368;49.484;11.112;2023-07-29T01:40:44;19.30;99.90
2721;DHT22;1368;49.484;11.112;2023-07-29T01:43:11;19.50;99.90
2721;DHT22;1368;49.484;11.112;2023-07-29T01:45:37;19.40;99.90
2721;DHT22;1368;49.484;11.112;2023-07-29T01:48:07;19.40;99.90
2721;DHT22;1368;49.484;11.112;2023-07-29T01:50:36;19.40;99.90
2721;DHT22;1368;49.484;11.112;2023-07-29T01:53:02;19.40;99.90
2721;DHT22;1368;49.484;11.112;2023-07-29T01:55:28;19.30;99.90
2721;DHT22;1368;49.484;11.112;2023-07-29T01:57:54;19.30;99.90
2721;DHT22;1368;49.484;11.112;2023-07-29T02:00:19;19.30;99.90
2721;DHT22;1368;49.484;11.112;2023-07-29T02:02:45;19.30;99.90
2721;DHT22;1368;49.484;11.112;2023-07-29T02:05:11;19.30;99.90
2721;DHT22;1368;49.484;11.112;2023-07-29T02:07:36;19.50;99.90
2721;DHT22;1368;49.484;11.112;2023-07-29T02:10:02;19.30;99.90
2721;DHT22;1368;49.484;11.112;2023-07-29T02:12:28;19.30;99.90
2721;DHT22;1368;49.484;11.112;2023-07-29T02:14:53;19.50;99.90
2721;DHT22;1368;49.484;11.112;2023-07-29T02:17:19;19.40;99.90
2721;DHT22;1368;49.484;11.112;2023-07-29T02:19:45;19.60;99.90
2721;DHT22;1368;49.484;11.112;2023-07-29T02:22:13;19.40;99.90
2721;DHT22;1368;49.484;11.112;2023-07-29T02:24:39;19.00;99.90
2721;DHT22;1368;49.484;11.112;2023-07-29T02:27:05;19.10;99.90
2721;DHT22;1368;49.484;11.112;2023-07-29T02:29:30;19.10;99.90
2721;DHT22;1368;49.484;11.112;2023-07-29T02:31:58;19.10;99.90
2721;DHT22;1368;49.484;11.112;2023-07-29T02:34:23;19.10;99.90
2721;DHT22;1368;49.484;11.112;2023-07-29T02:36:49;19.00;99.90
2721;DHT22;1368;49.484;11.112;2023-07-29T02:39:14;19.30;99.90
2721;DHT22;1368;49.484;11.112;2023-07-29T02:41:40;19.00;99.90
2721;DHT22;1368;49.484;11.112;2023-07-29T02:44:06;19.10;99.90
2721;DHT22;1368;49.484;11.112;2023-07-29T02:46:32;18.50;99.90
2721;DHT22;1368;49.484;11.112;2023-07-29T02:48:57;18.50;99.90
2721;DHT22;1368;49.484;11.112;2023-07-29T02:51:23;19.00;99.90
2721;DHT22;1368;49.484;11.112;2023-07-29T02:53:48;18.60;99.90
2721;DHT22;1368;49.484;11.112;2023-07-29T02:56:14;18.50;99.90
2721;DHT22;1368;49.484;11.112;2023-07-29T02:58:39;18.80;99.90
2721;DHT22;1368;49.484;11.112;2023-07-29T03:01:05;18.50;99.90
2721;DHT22;1368;49.484;11.112;2023-07-29T03:03:31;18.80;99.90
2721;DHT22;1368;49.484;11.112;2023-07-29T03:06:02;18.30;99.90
2721;DHT22;1368;49.484;11.112;2023-07-29T03:08:28;18.20;99.90
2721;DHT22;1368;49.484;11.112;2023-07-29T03:10:55;18.00;99.90
2721;DHT22;1368;49.484;11.112;2023-07-29T03:13:21;18.10;99.90
2721;DHT22;1368;49.484;11.112;2023-07-29T03:15:46;18.50;99.90
2721;DHT22;1368;49.484;11.112;2023-07-29T03:18:12;18.10;99.90
2721;DHT22;1368;49.484;11.112;2023-07-29T03:20:37;18.20;99.90
2721;DHT22;1368;49.484;11.112;2023-07-29T03:23:03;18.50;99.90
2721;DHT22;1368;49.484;11.112;2023-07-29T03:25:28;18.40;99.90
2721;DHT22;1368;49.484;11.112;2023-07-29T03:27:54;18.30;99.90
2721;DHT22;1368;49.484;11.112;2023-07-29T03:30:21;18.50;99.90
2721;DHT22;1368;49.484;11.112;2023-07-29T03:32:47;18.20;99.90
2721;DHT22;1368;49.484;11.112;2023-07-29T03:35:13;18.20;99.90
2721;DHT22;1368;49.484;11.112;2023-07-29T03:37:39;18.70;99.90
2721;DHT22;1368;49.484;11.112;2023-07-29T03:40:06;18.30;99.90
2721;DHT22;1368;49.484;11.112;2023-07-29T03:42:31;18.20;99.90
2721;DHT22;1368;49.484;11.112;2023-07-29T03:44:57;18.20;99.90
2721;DHT22;1368;49.484;11.112;2023-07-29T03:47:22;18.30;99.90
2721;DHT22;1368;49.484;11.112;2023-07-29T03:49:48;18.90;99.90
2721;DHT22;1368;49.484;11.112;2023-07-29T03:52:14;18.50;99.90
2721;DHT22;1368;49.484;11.112;2023-07-29T03:54:39;18.50;99.90
2721;DHT22;1368;49.484;11.112;2023-07-29T03:57:05;18.50;99.90
2721;DHT22;1368;49.484;11.112;2023-07-29T03:59:31;18.30;99.90
2721;DHT22;1368;49.484;11.112;2023-07-29T04:01:56;18.50;99.90
2721;DHT22;1368;49.484;11.112;2023-07-29T04:04:22;18.40;99.90
2721;DHT22;1368;49.484;11.112;2023-07-29T04:06:48;18.50;99.90
2721;DHT22;1368;49.484;11.112;2023-07-29T04:09:13;18.60;99.90
2721;DHT22;1368;49.484;11.112;2023-07-29T04:11:39;18.50;99.90
2721;DHT22;1368;49.484;11.112;2023-07-29T04:14:04;18.70;99.90
2721;DHT22;1368;49.484;11.112;2023-07-29T04:16:30;19.30;99.90
2721;DHT22;1368;49.484;11.112;2023-07-29T04:18:56;20.30;99.90
2721;DHT22;1368;49.484;11.112;2023-07-29T04:21:21;20.00;99.90
2721;DHT22;1368;49.484;11.112;2023-07-29T04:23:47;20.60;99.90
2721;DHT22;1368;49.484;11.112;2023-07-29T04:26:12;20.70;99.90
2721;DHT22;1368;49.484;11.112;2023-07-29T04:28:38;21.40;99.90
2721;DHT22;1368;49.484;11.112;2023-07-29T04:31:03;21.30;99.90
2721;DHT22;1368;49.484;11.112;2023-07-29T04:33:30;21.50;99.90
2721;DHT22;1368;49.484;11.112;2023-07-29T04:35:56;22.00;99.90
2721;DHT22;1368;49.484;11.112;2023-07-29T04:38:21;22.70;99.90
2721;DHT22;1368;49.484;11.112;2023-07-29T04:40:49;23.00;99.90
2721;DHT22;1368;49.484;11.112;2023-07-29T04:43:14;23.40;99.90
2721;DHT22;1368;49.484;11.112;2023-07-29T04:45:43;23.80;99.90
2721;DHT22;1368;49.484;11.112;2023-07-29T04:48:09;23.30;99.90
2721;DHT22;1368;49.484;11.112;2023-07-29T04:50:34;22.90;99.90
2721;DHT22;1368;49.484;11.112;2023-07-29T04:53:00;22.70;99.90
2721;DHT22;1368;49.484;11.112;2023-07-29T04:55:25;22.70;99.90
2721;DHT22;1368;49.484;11.112;2023-07-29T04:57:51;22.10;99.90
2721;DHT22;1368;49.484;11.112;2023-07-29T05:00:17;22.00;99.90
2721;DHT22;1368;49.484;11.112;2023-07-29T05:02:43;22.40;99.90
2721;DHT22;1368;49.484;11.112;2023-07-29T05:05:08;23.00;99.90
2721;DHT22;1368;49.484;11.112;2023-07-29T05:07:34;23.50;99.90
2721;DHT22;1368;49.484;11.112;2023-07-29T05:09:59;23.70;99.90
2721;DHT22;1368;49.484;11.112;2023-07-29T05:12:25;23.80;99.90
2721;DHT22;1368;49.484;11.112;2023-07-29T05:14:50;23.90;99.90
2721;DHT22;1368;49.484;11.112;2023-07-29T05:17:16;23.60;99.90
2721;DHT22;1368;49.484;11.112;2023-07-29T05:19:42;23.60;99.90
2721;DHT22;1368;49.484;11.112;2023-07-29T05:22:07;23.20;99.90
2721;DHT22;1368;49.484;11.112;2023-07-29T05:24:33;23.30;99.90
2721;DHT22;1368;49.484;11.112;2023-07-29T05:26:58;23.00;99.90
2721;DHT22;1368;49.484;11.112;2023-07-29T05:29:24;23.00;99.90
2721;DHT22;1368;49.484;11.112;2023-07-29T05:31:49;22.40;99.90
2721;DHT22;1368;49.484;11.112;2023-07-29T05:34:15;22.30;99.90
2721;DHT22;1368;49.484;11.112;2023-07-29T05:36:40;22.30;99.90
2721;DHT22;1368;49.484;11.112;2023-07-29T05:39:06;21.70;99.90
2721;DHT22;1368;49.484;11.112;2023-07-29T05:41:32;21.60;99.90
2721;DHT22;1368;49.484;11.112;2023-07-29T05:43:58;21.40;99.90
2721;DHT22;1368;49.484;11.112;2023-07-29T05:46:24;21.60;99.90
2721;DHT22;1368;49.484;11.112;2023-07-29T05:48:49;21.10;99.90
2721;DHT22;1368;49.484;11.112;2023-07-29T05:51:15;21.00;99.90
2721;DHT22;1368;49.484;11.112;2023-07-29T05:53:40;21.00;99.90
2721;DHT22;1368;49.484;11.112;2023-07-29T05:56:06;21.10;99.90
2721;DHT22;1368;49.484;11.112;2023-07-29T05:58:31;21.10;99.90
2721;DHT22;1368;49.484;11.112;2023-07-29T06:00:57;21.20;99.90
2721;DHT22;1368;49.484;11.112;2023-07-29T06:03:23;21.00;99.90
2721;DHT22;1368;49.484;11.112;2023-07-29T06:05:49;21.20;99.90
2721;DHT22;1368;49.484;11.112;2023-07-29T06:08:15;21.30;99.90
2721;DHT22;1368;49.484;11.112;2023-07-29T06:10:40;21.60;99.90
2721;DHT22;1368;49.484;11.112;2023-07-29T06:13:06;21.90;99.90
2721;DHT22;1368;49.484;11.112;2023-07-29T06:15:31;21.90;99.90
2721;DHT22;1368;49.484;11.112;2023-07-29T06:17:57;21.90;99.90
2721;DHT22;1368;49.484;11.112;2023-07-29T06:20:23;21.80;99.90
2721;DHT22;1368;49.484;11.112;2023-07-29T06:22:48;21.60;99.90
2721;DHT22;1368;49.484;11.112;2023-07-29T06:25:14;21.70;99.90
2721;DHT22;1368;49.484;11.112;2023-07-29T06:27:40;21.40;99.90
2721;DHT22;1368;49.484;11.112;2023-07-29T06:30:05;21.20;99.90
2721;DHT22;1368;49.484;11.112;2023-07-29T06:32:31;20.80;99.90
2721;DHT22;1368;49.484;11.112;2023-07-29T06:34:57;20.90;99.90
2721;DHT22;1368;49.484;11.112;2023-07-29T06:37:23;21.10;99.90
2721;DHT22;1368;49.484;11.112;2023-07-29T06:39:48;21.00;99.90
2721;DHT22;1368;49.484;11.112;2023-07-29T06:42:14;20.90;99.90
2721;DHT22;1368;49.484;11.112;2023-07-29T06:44:40;21.10;99.90
2721;DHT22;1368;49.484;11.112;2023-07-29T06:47:06;21.30;99.90
2721;DHT22;1368;49.484;11.112;2023-07-29T06:49:32;21.50;99.90
2721;DHT22;1368;49.484;11.112;2023-07-29T06:51:57;21.60;99.90
2721;DHT22;1368;49.484;11.112;2023-07-29T06:54:26;21.10;99.90
2721;DHT22;1368;49.484;11.112;2023-07-29T06:56:52;20.50;99.90
2721;DHT22;1368;49.484;11.112;2023-07-29T06:59:17;19.60;99.90
2721;DHT22;1368;49.484;11.112;2023-07-29T07:01:43;19.50;99.90
2721;DHT22;1368;49.484;11.112;2023-07-29T07:04:08;19.00;99.90
2721;DHT22;1368;49.484;11.112;2023-07-29T07:06:34;19.00;99.90
2721;DHT22;1368;49.484;11.112;2023-07-29T07:09:00;19.10;99.90
2721;DHT22;1368;49.484;11.112;2023-07-29T07:11:25;19.50;99.90
2721;DHT22;1368;49.484;11.112;2023-07-29T07:13:51;19.30;99.90
2721;DHT22;1368;49.484;11.112;2023-07-29T07:16:16;19.80;99.90
2721;DHT22;1368;49.484;11.112;2023-07-29T07:18:43;19.40;99.90
2721;DHT22;1368;49.484;11.112;2023-07-29T07:21:09;19.40;99.90
2721;DHT22;1368;49.484;11.112;2023-07-29T07:23:34;19.60;99.90
2721;DHT22;1368;49.484;11.112;2023-07-29T07:26:00;19.80;99.90
2721;DHT22;1368;49.484;11.112;2023-07-29T07:28:25;19.90;99.90
2721;DHT22;1368;49.484;11.112;2023-07-29T07:30:51;19.70;99.90
2721;DHT22;1368;49.484;11.112;2023-07-29T07:33:17;19.60;99.90
2721;DHT22;1368;49.484;11.112;2023-07-29T07:35:42;20.00;99.90
2721;DHT22;1368;49.484;11.112;2023-07-29T07:38:08;20.30;99.90
2721;DHT22;1368;49.484;11.112;2023-07-29T07:40:35;20.50;99.90
2721;DHT22;1368;49.484;11.112;2023-07-29T07:43:01;20.80;99.90
2721;DHT22;1368;49.484;11.112;2023-07-29T07:45:28;21.10;99.90
2721;DHT22;1368;49.484;11.112;2023-07-29T07:47:54;21.40;99.90
2721;DHT22;1368;49.484;11.112;2023-07-29T07:50:19;21.60;99.90
2721;DHT22;1368;49.484;11.112;2023-07-29T07:52:45;21.40;99.90
2721;DHT22;1368;49.484;11.112;2023-07-29T07:55:11;21.40;99.90
2721;DHT22;1368;49.484;11.112;2023-07-29T07:57:36;21.50;99.90
2721;DHT22;1368;49.484;11.112;2023-07-29T08:00:02;21.60;99.90
2721;DHT22;1368;49.484;11.112;2023-07-29T08:02:29;21.60;99.90
2721;DHT22;1368;49.484;11.112;2023-07-29T08:04:55;21.50;99.90
2721;DHT22;1368;49.484;11.112;2023-07-29T08:07:21;21.30;99.90
2721;DHT22;1368;49.484;11.112;2023-07-29T08:09:46;21.40;99.90
2721;DHT22;1368;49.484;11.112;2023-07-29T08:12:12;21.20;99.90
2721;DHT22;1368;49.484;11.112;2023-07-29T08:14:37;21.30;99.90
2721;DHT22;1368;49.484;11.112;2023-07-29T08:17:03;20.80;99.90
2721;DHT22;1368;49.484;11.112;2023-07-29T08:19:29;20.40;99.90
2721;DHT22;1368;49.484;11.112;2023-07-29T08:21:54;19.90;99.90
2721;DHT22;1368;49.484;11.112;2023-07-29T08:24:20;19.40;99.90
2721;DHT22;1368;49.484;11.112;2023-07-29T08:26:45;20.10;99.90
2721;DHT22;1368;49.484;11.112;2023-07-29T08:29:11;19.90;99.90
2721;DHT22;1368;49.484;11.112;2023-07-29T08:31:37;19.80;99.90
2721;DHT22;1368;49.484;11.112;2023-07-29T08:34:03;20.00;99.90
2721;DHT22;1368;49.484;11.112;2023-07-29T08:36:28;19.80;99.90
2721;DHT22;1368;49.484;11.112;2023-07-29T08:38:54;19.40;99.90
2721;DHT22;1368;49.484;11.112;2023-07-29T08:41:25;19.20;99.90
2721;DHT22;1368;49.484;11.112;2023-07-29T08:46:32;19.20;99.90
2721;DHT22;1368;49.484;11.112;2023-07-29T08:48:59;19.30;99.90
2721;DHT22;1368;49.484;11.112;2023-07-29T08:51:27;19.60;99.90
2721;DHT22;1368;49.484;11.112;2023-07-29T08:53:53;20.10;99.90
2721;DHT22;1368;49.484;11.112;2023-07-29T08:56:19;19.70;99.90
2721;DHT22;1368;49.484;11.112;2023-07-29T08:58:45;19.80;99.90
2721;DHT22;1368;49.484;11.112;2023-07-29T09:01:11;19.90;99.90
2721;DHT22;1368;49.484;11.112;2023-07-29T09:03:37;20.30;99.90
2721;DHT22;1368;49.484;11.112;2023-07-29T09:06:03;20.50;99.90
2721;DHT22;1368;49.484;11.112;2023-07-29T09:08:29;20.80;99.90
2721;DHT22;1368;49.484;11.112;2023-07-29T09:10:55;20.60;99.90
2721;DHT22;1368;49.484;11.112;2023-07-29T09:13:21;20.70;99.90
2721;DHT22;1368;49.484;11.112;2023-07-29T09:15:47;20.90;99.90
2721;DHT22;1368;49.484;11.112;2023-07-29T09:18:18;20.90;99.90
2721;DHT22;1368;49.484;11.112;2023-07-29T09:20:46;21.10;99.90
2721;DHT22;1368;49.484;11.112;2023-07-29T09:23:13;21.30;99.90
2721;DHT22;1368;49.484;11.112;2023-07-29T09:25:39;21.40;99.90
2721;DHT22;1368;49.484;11.112;2023-07-29T09:28:10;21.20;99.90
2721;DHT22;1368;49.484;11.112;2023-07-29T09:30:39;21.40;99.90
2721;DHT22;1368;49.484;11.112;2023-07-29T09:33:06;21.20;99.90
2721;DHT22;1368;49.484;11.112;2023-07-29T09:35:34;21.30;99.90
2721;DHT22;1368;49.484;11.112;2023-07-29T09:38:00;21.20;99.90
2721;DHT22;1368;49.484;11.112;2023-07-29T09:40:26;20.90;99.90
2721;DHT22;1368;49.484;11.112;2023-07-29T09:42:53;21.00;99.90
2721;DHT22;1368;49.484;11.112;2023-07-29T09:45:23;21.20;99.90
2721;DHT22;1368;49.484;11.112;2023-07-29T09:47:49;21.30;99.90
2721;DHT22;1368;49.484;11.112;2023-07-29T09:50:16;21.50;99.90
2721;DHT22;1368;49.484;11.112;2023-07-29T09:52:42;21.70;99.90
2721;DHT22;1368;49.484;11.112;2023-07-29T09:55:10;21.30;99.90
2721;DHT22;1368;49.484;11.112;2023-07-29T09:57:37;21.70;99.90
2721;DHT22;1368;49.484;11.112;2023-07-29T10:00:04;21.80;99.90
2721;DHT22;1368;49.484;11.112;2023-07-29T10:02:37;22.20;99.90
2721;DHT22;1368;49.484;11.112;2023-07-29T10:05:03;22.70;99.90
2721;DHT22;1368;49.484;11.112;2023-07-29T10:07:29;22.70;99.90
2721;DHT22;1368;49.484;11.112;2023-07-29T10:09:56;23.00;99.90
2721;DHT22;1368;49.484;11.112;2023-07-29T10:12:24;23.40;99.90
2721;DHT22;1368;49.484;11.112;2023-07-29T10:14:50;23.90;99.90
2721;DHT22;1368;49.484;11.112;2023-07-29T10:17:16;23.80;99.90
2721;DHT22;1368;49.484;11.112;2023-07-29T10:19:44;24.10;99.90
2721;DHT22;1368;49.484;11.112;2023-07-29T10:22:12;24.20;99.90
2721;DHT22;1368;49.484;11.112;2023-07-29T10:24:39;24.40;99.90
2721;DHT22;1368;49.484;11.112;2023-07-29T10:27:09;24.60;99.90
2721;DHT22;1368;49.484;11.112;2023-07-29T10:29:39;25.40;99.90
2721;DHT22;1368;49.484;11.112;2023-07-29T10:32:08;25.00;99.90
2721;DHT22;1368;49.484;11.112;2023-07-29T10:34:36;25.70;99.90
2721;DHT22;1368;49.484;11.112;2023-07-29T10:37:02;26.20;99.90
2721;DHT22;1368;49.484;11.112;2023-07-29T10:39:28;26.10;99.90
2721;DHT22;1368;49.484;11.112;2023-07-29T10:42:06;26.20;99.90
2721;DHT22;1368;49.484;11.112;2023-07-29T10:47:24;27.00;99.90
2721;DHT22;1368;49.484;11.112;2023-07-29T10:49:53;26.60;99.90
2721;DHT22;1368;49.484;11.112;2023-07-29T10:55:01;26.10;99.90
2721;DHT22;1368;49.484;11.112;2023-07-29T10:57:35;26.70;99.90
2721;DHT22;1368;49.484;11.112;2023-07-29T11:00:02;26.50;99.90
2721;DHT22;1368;49.484;11.112;2023-07-29T11:02:30;27.00;99.90
2721;DHT22;1368;49.484;11.112;2023-07-29T11:04:56;27.50;99.90
2721;DHT22;1368;49.484;11.112;2023-07-29T11:07:23;28.00;99.90
2721;DHT22;1368;49.484;11.112;2023-07-29T11:09:54;28.50;99.90
2721;DHT22;1368;49.484;11.112;2023-07-29T11:12:42;28.90;99.90
2721;DHT22;1368;49.484;11.112;2023-07-29T11:15:17;29.30;99.90
2721;DHT22;1368;49.484;11.112;2023-07-29T11:17:54;29.30;99.90
2721;DHT22;1368;49.484;11.112;2023-07-29T11:20:22;29.00;99.90
2721;DHT22;1368;49.484;11.112;2023-07-29T11:22:48;29.20;99.90
2721;DHT22;1368;49.484;11.112;2023-07-29T11:25:16;29.00;99.90
2721;DHT22;1368;49.484;11.112;2023-07-29T11:27:42;29.00;99.90
2721;DHT22;1368;49.484;11.112;2023-07-29T11:30:09;28.80;99.90
2721;DHT22;1368;49.484;11.112;2023-07-29T11:32:37;28.90;99.90
2721;DHT22;1368;49.484;11.112;2023-07-29T11:35:04;29.10;99.90
2721;DHT22;1368;49.484;11.112;2023-07-29T11:37:30;29.10;99.90
2721;DHT22;1368;49.484;11.112;2023-07-29T11:39:56;29.00;99.90
2721;DHT22;1368;49.484;11.112;2023-07-29T11:42:21;28.70;99.90
2721;DHT22;1368;49.484;11.112;2023-07-29T11:44:47;28.30;99.90
2721;DHT22;1368;49.484;11.112;2023-07-29T11:47:13;28.00;99.90
2721;DHT22;1368;49.484;11.112;2023-07-29T11:49:39;27.70;99.90
2721;DHT22;1368;49.484;11.112;2023-07-29T11:52:10;27.90;99.90
2721;DHT22;1368;49.484;11.112;2023-07-29T11:54:37;28.40;99.90
2721;DHT22;1368;49.484;11.112;2023-07-29T11:57:09;28.80;99.90
2721;DHT22;1368;49.484;11.112;2023-07-29T11:59:36;29.10;99.90
2721;DHT22;1368;49.484;11.112;2023-07-29T12:02:05;29.10;99.90
2721;DHT22;1368;49.484;11.112;2023-07-29T12:04:32;29.00;99.90
2721;DHT22;1368;49.484;11.112;2023-07-29T12:06:58;28.70;99.90
2721;DHT22;1368;49.484;11.112;2023-07-29T12:09:25;28.70;99.90
2721;DHT22;1368;49.484;11.112;2023-07-29T12:11:52;28.70;99.90
2721;DHT22;1368;49.484;11.112;2023-07-29T12:14:17;28.80;99.90
2721;DHT22;1368;49.484;11.112;2023-07-29T12:16:43;28.80;99.90
2721;DHT22;1368;49.484;11.112;2023-07-29T12:19:12;28.80;99.90
2721;DHT22;1368;49.484;11.112;2023-07-29T12:21:39;28.80;99.90
2721;DHT22;1368;49.484;11.112;2023-07-29T12:24:05;28.40;99.90
2721;DHT22;1368;49.484;11.112;2023-07-29T12:26:31;28.40;99.90
2721;DHT22;1368;49.484;11.112;2023-07-29T12:28:56;28.60;99.90
2721;DHT22;1368;49.484;11.112;2023-07-29T12:31:31;28.40;99.90
2721;DHT22;1368;49.484;11.112;2023-07-29T12:33:56;28.50;99.90
2721;DHT22;1368;49.484;11.112;2023-07-29T12:36:22;28.10;99.90
2721;DHT22;1368;49.484;11.112;2023-07-29T12:38:52;28.10;99.90
2721;DHT22;1368;49.484;11.112;2023-07-29T12:41:17;28.20;99.90
2721;DHT22;1368;49.484;11.112;2023-07-29T12:43:43;28.00;99.90
2721;DHT22;1368;49.484;11.112;2023-07-29T12:46:08;28.10;99.90
2721;DHT22;1368;49.484;11.112;2023-07-29T12:48:34;28.40;99.90
2721;DHT22;1368;49.484;11.112;2023-07-29T12:50:59;28.30;99.90
2721;DHT22;1368;49.484;11.112;2023-07-29T12:53:25;28.10;99.90
2721;DHT22;1368;49.484;11.112;2023-07-29T12:55:50;28.50;99.90
2721;DHT22;1368;49.484;11.112;2023-07-29T12:58:16;28.70;99.90
2721;DHT22;1368;49.484;11.112;2023-07-29T13:00:42;29.20;99.90
2721;DHT22;1368;49.484;11.112;2023-07-29T13:03:07;29.60;99.90
2721;DHT22;1368;49.484;11.112;2023-07-29T13:05:33;29.90;99.90
2721;DHT22;1368;49.484;11.112;2023-07-29T13:07:58;30.00;99.90
2721;DHT22;1368;49.484;11.112;2023-07-29T13:10:24;29.40;99.90
2721;DHT22;1368;49.484;11.112;2023-07-29T13:12:49;29.30;99.90
2721;DHT22;1368;49.484;11.112;2023-07-29T13:15:15;29.50;99.90
2721;DHT22;1368;49.484;11.112;2023-07-29T13:17:40;29.60;99.90
2721;DHT22;1368;49.484;11.112;2023-07-29T13:20:07;29.60;99.90
2721;DHT22;1368;49.484;11.112;2023-07-29T13:22:33;29.90;99.90
2721;DHT22;1368;49.484;11.112;2023-07-29T13:24:58;30.20;99.90
2721;DHT22;1368;49.484;11.112;2023-07-29T13:27:24;30.10;99.90
2721;DHT22;1368;49.484;11.112;2023-07-29T13:29:50;30.00;99.90
2721;DHT22;1368;49.484;11.112;2023-07-29T13:32:16;29.90;99.90
2721;DHT22;1368;49.484;11.112;2023-07-29T13:34:42;29.70;99.90
2721;DHT22;1368;49.484;11.112;2023-07-29T13:37:08;29.50;99.90
2721;DHT22;1368;49.484;11.112;2023-07-29T13:39:33;29.30;99.90
2721;DHT22;1368;49.484;11.112;2023-07-29T13:41:59;29.40;99.90
2721;DHT22;1368;49.484;11.112;2023-07-29T13:44:24;29.50;99.90
2721;DHT22;1368;49.484;11.112;2023-07-29T13:46:50;29.40;99.90
2721;DHT22;1368;49.484;11.112;2023-07-29T13:49:16;29.20;99.90
2721;DHT22;1368;49.484;11.112;2023-07-29T13:51:42;29.30;99.90
2721;DHT22;1368;49.484;11.112;2023-07-29T13:54:08;29.20;99.90
2721;DHT22;1368;49.484;11.112;2023-07-29T13:56:33;29.10;99.90
2721;DHT22;1368;49.484;11.112;2023-07-29T13:58:59;29.00;99.90
2721;DHT22;1368;49.484;11.112;2023-07-29T14:01:24;28.90;99.90
2721;DHT22;1368;49.484;11.112;2023-07-29T14:03:50;28.60;99.90
2721;DHT22;1368;49.484;11.112;2023-07-29T14:06:15;28.40;99.90
2721;DHT22;1368;49.484;11.112;2023-07-29T14:08:41;28.60;99.90
2721;DHT22;1368;49.484;11.112;2023-07-29T14:11:07;28.70;99.90
2721;DHT22;1368;49.484;11.112;2023-07-29T14:13:33;28.80;99.90
2721;DHT22;1368;49.484;11.112;2023-07-29T14:16:01;29.00;99.90
2721;DHT22;1368;49.484;11.112;2023-07-29T14:18:27;29.10;99.90
2721;DHT22;1368;49.484;11.112;2023-07-29T14:20:52;29.30;99.90
2721;DHT22;1368;49.484;11.112;2023-07-29T14:23:18;29.70;99.90
2721;DHT22;1368;49.484;11.112;2023-07-29T14:25:43;29.70;99.90
2721;DHT22;1368;49.484;11.112;2023-07-29T14:28:09;29.40;99.90
2721;DHT22;1368;49.484;11.112;2023-07-29T14:30:35;28.80;99.90
2721;DHT22;1368;49.484;11.112;2023-07-29T14:33:01;28.70;99.90
2721;DHT22;1368;49.484;11.112;2023-07-29T14:35:26;28.90;99.90
2721;DHT22;1368;49.484;11.112;2023-07-29T14:37:52;29.10;99.90
2721;DHT22;1368;49.484;11.112;2023-07-29T14:40:17;28.80;99.90
2721;DHT22;1368;49.484;11.112;2023-07-29T14:42:43;28.70;99.90
2721;DHT22;1368;49.484;11.112;2023-07-29T14:45:08;28.50;99.90
2721;DHT22;1368;49.484;11.112;2023-07-29T14:47:34;28.40;99.90
2721;DHT22;1368;49.484;11.112;2023-07-29T14:50:00;28.40;99.90
2721;DHT22;1368;49.484;11.112;2023-07-29T14:52:26;28.50;99.90
2721;DHT22;1368;49.484;11.112;2023-07-29T14:54:51;28.60;99.90
2721;DHT22;1368;49.484;11.112;2023-07-29T14:57:17;28.80;99.90
2721;DHT22;1368;49.484;11.112;2023-07-29T14:59:42;29.10;99.90
2721;DHT22;1368;49.484;11.112;2023-07-29T15:02:08;29.20;99.90
2721;DHT22;1368;49.484;11.112;2023-07-29T15:04:34;29.10;99.90
2721;DHT22;1368;49.484;11.112;2023-07-29T15:06:59;29.00;99.90
2721;DHT22;1368;49.484;11.112;2023-07-29T15:09:25;28.90;99.90
2721;DHT22;1368;49.484;11.112;2023-07-29T15:11:51;28.80;99.90
2721;DHT22;1368;49.484;11.112;2023-07-29T15:14:16;28.60;99.90
2721;DHT22;1368;49.484;11.112;2023-07-29T15:16:42;28.30;99.90
2721;DHT22;1368;49.484;11.112;2023-07-29T15:19:07;28.10;99.90
2721;DHT22;1368;49.484;11.112;2023-07-29T15:21:33;28.30;99.90
2721;DHT22;1368;49.484;11.112;2023-07-29T15:23:59;28.30;99.90
2721;DHT22;1368;49.484;11.112;2023-07-29T15:26:24;28.10;99.90
2721;DHT22;1368;49.484;11.112;2023-07-29T15:28:50;27.80;99.90
2721;DHT22;1368;49.484;11.112;2023-07-29T15:31:15;27.90;99.90
2721;DHT22;1368;49.484;11.112;2023-07-29T15:33:41;27.70;99.90
2721;DHT22;1368;49.484;11.112;2023-07-29T15:36:07;27.60;99.90
2721;DHT22;1368;49.484;11.112;2023-07-29T15:38:32;27.50;99.90
2721;DHT22;1368;49.484;11.112;2023-07-29T15:40:59;27.50;99.90
2721;DHT22;1368;49.484;11.112;2023-07-29T15:43:24;27.30;99.90
2721;DHT22;1368;49.484;11.112;2023-07-29T15:45:50;27.30;99.90
2721;DHT22;1368;49.484;11.112;2023-07-29T15:48:15;27.30;99.90
2721;DHT22;1368;49.484;11.112;2023-07-29T15:50:41;27.10;99.90
2721;DHT22;1368;49.484;11.112;2023-07-29T15:53:07;26.90;99.90